Time;durP1;ratioP1;P1;durP2;ratioP2;P2;SDS_P1;SDS_P2;PMS_P1;PMS_P2;Temp;Humidity;BMP_temperature;BMP_pressure;BME280_temperature;BME280_humidity;BME280_pressure;Samples;Min_cycle;Max_cycle;Signal;HPM_P1;HPM_P2
2022/05/02 00:00:42;;;;;;;508.33;400.33;;;;;;;10.66;100.00;98796.56;5038646;28;20039;-64
2022/05/02 00:03:08;;;;;;;508.53;402.10;;;;;;;10.63;100.00;98799.19;5038273;28;20040;-63
2022/05/02 00:05:34;;;;;;;505.27;395.37;;;;;;;10.57;100.00;98778.75;5043132;28;20036;-64
2022/05/02 00:07:59;;;;;;;501.37;392.33;;;;;;;10.68;100.00;98784.56;5043033;28;20037;-64
2022/05/02 00:10:25;;;;;;;516.20;406.90;;;;;;;10.73;100.00;98785.34;5038749;28;20037;-64
2022/05/02 00:12:50;;;;;;;509.53;401.23;;;;;;;10.71;100.00;98774.25;5039209;28;20090;-65
2022/05/02 00:15:15;;;;;;;503.07;387.67;;;;;;;10.77;100.00;98768.19;5043316;28;20049;-65
2022/05/02 00:17:56;;;;;;;502.93;378.57;;;;;;;10.90;100.00;98767.94;5042728;28;20041;-65
2022/05/02 00:20:29;;;;;;;502.03;380.97;;;;;;;10.85;100.00;98767.16;5038931;28;20037;-65
2022/05/02 00:22:56;;;;;;;501.63;379.07;;;;;;;10.86;100.00;98763.72;5039318;28;20423;-64
2022/05/02 00:25:23;;;;;;;501.07;374.73;;;;;;;10.81;100.00;98760.41;5042667;28;20364;-64
2022/05/02 00:27:48;;;;;;;502.03;375.00;;;;;;;10.81;100.00;98759.56;5040425;28;20048;-65
2022/05/02 00:30:15;;;;;;;506.33;386.77;;;;;;;10.79;100.00;98763.84;5038948;28;20694;-63
2022/05/02 00:32:42;;;;;;;500.63;373.07;;;;;;;10.76;100.00;98754.50;5041151;28;20029;-65
2022/05/02 00:35:08;;;;;;;502.20;375.67;;;;;;;10.74;100.00;98757.94;5042120;28;20078;-65
2022/05/02 00:37:34;;;;;;;505.23;377.93;;;;;;;10.80;100.00;98751.00;5040965;28;20482;-65
2022/05/02 00:40:00;;;;;;;507.43;382.87;;;;;;;10.77;100.00;98748.50;5038453;28;20220;-65
2022/05/02 00:42:25;;;;;;;503.47;374.80;;;;;;;10.77;100.00;98753.66;5041454;28;20021;-64
2022/05/02 00:44:51;;;;;;;505.13;386.00;;;;;;;10.71;100.00;98752.88;5042100;28;20036;-65
2022/05/02 00:47:18;;;;;;;504.50;390.87;;;;;;;10.77;100.00;98739.97;5040095;28;20454;-62
2022/05/02 00:49:44;;;;;;;512.80;411.87;;;;;;;10.79;100.00;98751.88;5037743;28;20045;-64
2022/05/02 00:52:10;;;;;;;17.10;12.55;;;;;;;10.85;100.00;98746.66;5042115;28;20036;-65
2022/05/02 00:54:37;;;;;;;313.65;294.77;;;;;;;10.84;100.00;98744.94;5042990;28;20040;-63
2022/05/02 00:57:05;;;;;;;15.85;11.90;;;;;;;10.93;100.00;98755.06;5038829;28;20102;-64
2022/05/02 00:59:30;;;;;;;15.40;11.75;;;;;;;10.93;100.00;98744.78;5038254;28;20332;-64
2022/05/02 01:01:55;;;;;;;460.97;415.53;;;;;;;10.93;100.00;98744.78;5042669;28;20035;-64
2022/05/02 01:04:21;;;;;;;486.90;398.83;;;;;;;10.98;100.00;98748.13;5042358;28;20147;-62
2022/05/02 01:09:32;;;;;;;505.10;388.10;;;;;;;11.04;100.00;98743.72;5039291;28;20119;-63
2022/05/02 01:11:58;;;;;;;505.43;389.87;;;;;;;11.10;100.00;98746.19;5044699;28;20028;-64
2022/05/02 01:14:23;;;;;;;506.43;392.20;;;;;;;11.06;100.00;98736.84;5044657;28;20033;-64
2022/05/02 01:16:49;;;;;;;505.90;392.90;;;;;;;11.11;100.00;98745.31;5040405;28;20034;-63
2022/05/02 01:19:14;;;;;;;503.27;391.13;;;;;;;11.20;100.00;98745.97;5043518;28;20503;-62
2022/05/02 01:21:44;;;;;;;504.43;390.57;;;;;;;11.18;100.00;98746.88;5044967;28;20033;-63
2022/05/02 01:24:09;;;;;;;506.90;403.97;;;;;;;11.13;100.00;98741.84;5043488;28;20036;-65
2022/05/02 01:26:37;;;;;;;507.90;404.90;;;;;;;11.19;100.00;98741.72;5041076;28;20035;-62
2022/05/02 01:29:03;;;;;;;502.37;405.30;;;;;;;11.17;100.00;98745.19;5043297;28;20486;-64
2022/05/02 01:31:29;;;;;;;492.80;396.87;;;;;;;11.10;100.00;98734.22;5044753;28;20029;-63
2022/05/02 01:33:55;;;;;;;498.63;396.77;;;;;;;11.15;100.00;98734.97;5043175;28;20036;-63
2022/05/02 01:36:22;;;;;;;498.80;413.23;;;;;;;11.02;100.00;98723.25;5040869;28;20639;-63
2022/05/02 01:38:49;;;;;;;492.50;398.30;;;;;;;11.08;100.00;98729.97;5043473;28;20043;-64
2022/05/02 01:41:14;;;;;;;491.53;402.33;;;;;;;11.09;100.00;98729.94;5045337;28;20107;-64
2022/05/02 01:43:40;;;;;;;510.87;402.53;;;;;;;11.07;100.00;98734.28;5042258;28;20484;-65
2022/05/02 01:46:07;;;;;;;511.50;405.30;;;;;;;11.06;100.00;98736.84;5040658;28;20508;-64
2022/05/02 01:48:33;;;;;;;500.20;397.20;;;;;;;11.09;100.00;98729.09;5043874;28;20036;-61
2022/05/02 01:50:58;;;;;;;496.67;380.77;;;;;;;10.95;100.00;98729.34;5044857;28;20025;-64
2022/05/02 01:53:25;;;;;;;503.83;397.67;;;;;;;11.02;100.00;98720.69;5041546;28;20041;-64
2022/05/02 01:55:50;;;;;;;501.77;404.17;;;;;;;10.95;100.00;98725.06;5039938;28;20036;-62
2022/05/02 01:58:16;;;;;;;498.73;402.70;;;;;;;10.94;100.00;98725.97;5044922;28;20037;-64
2022/05/02 02:00:41;;;;;;;499.87;392.80;;;;;;;10.89;100.00;98726.91;5044604;28;20025;-64
2022/05/02 02:03:07;;;;;;;501.97;397.43;;;;;;;10.80;100.00;98724.53;5023857;28;20507;-63
2022/05/02 02:05:50;;;;;;;500.67;405.93;;;;;;;10.77;100.00;98722.03;5041929;28;20029;-65
2022/05/02 02:08:24;;;;;;;498.83;403.83;;;;;;;10.79;100.00;98720.25;5045158;28;20577;-64
2022/05/02 02:10:53;;;;;;;499.10;403.23;;;;;;;10.78;100.00;98726.25;5044301;28;20051;-64
2022/05/02 02:13:19;;;;;;;501.43;403.73;;;;;;;10.60;100.00;98721.47;5040388;28;20037;-64
2022/05/02 02:15:44;;;;;;;495.00;397.37;;;;;;;10.51;100.00;98727.59;5040931;28;20499;-64
2022/05/02 02:18:10;;;;;;;498.63;408.77;;;;;;;10.32;100.00;98710.84;5044614;28;20040;-59
2022/05/02 02:20:36;;;;;;;497.13;403.77;;;;;;;10.39;100.00;98723.53;5043092;28;20376;-59
2022/05/02 02:23:02;;;;;;;500.83;405.57;;;;;;;10.46;100.00;98716.59;5039717;28;20033;-58
2022/05/02 02:25:28;;;;;;;491.97;394.20;;;;;;;10.44;100.00;98714.03;5042294;28;20032;-59
2022/05/02 02:27:53;;;;;;;490.07;376.67;;;;;;;10.49;100.00;98716.53;5044091;28;20035;-59
2022/05/02 02:30:19;;;;;;;497.87;400.80;;;;;;;10.49;100.00;98712.25;5042356;28;20101;-60
2022/05/02 02:32:45;;;;;;;498.17;396.33;;;;;;;10.52;100.00;98706.22;5039205;28;20135;-60
2022/05/02 02:35:11;;;;;;;492.90;391.33;;;;;;;10.51;100.00;98704.53;5042516;28;20041;-60
2022/05/02 02:37:36;;;;;;;487.53;371.93;;;;;;;10.47;100.00;98708.88;5043734;28;20027;-60
2022/05/02 02:40:03;;;;;;;491.63;384.83;;;;;;;10.34;100.00;98707.38;5041403;28;20134;-60
2022/05/02 02:42:28;;;;;;;498.50;392.90;;;;;;;10.30;100.00;98712.59;5038426;28;20040;-60
2022/05/02 02:44:53;;;;;;;491.43;390.07;;;;;;;10.16;100.00;98712.81;5043171;28;20914;-60
2022/05/02 02:47:19;;;;;;;486.87;385.47;;;;;;;9.98;100.00;98713.91;5043291;28;20110;-60
2022/05/02 02:49:44;;;;;;;488.97;383.33;;;;;;;9.81;100.00;98717.59;5039904;28;20055;-60
2022/05/02 02:52:09;;;;;;;489.23;388.73;;;;;;;9.68;100.00;98724.59;5037299;28;20426;-60
2022/05/02 02:54:35;;;;;;;486.40;377.13;;;;;;;9.60;100.00;98727.25;5042265;28;20037;-59
2022/05/02 02:57:01;;;;;;;485.93;379.70;;;;;;;9.57;100.00;98717.06;5043567;28;20948;-60
2022/05/02 02:59:26;;;;;;;490.83;389.97;;;;;;;9.59;100.00;98715.31;5039599;28;20035;-60
2022/05/02 03:01:52;;;;;;;488.53;372.10;;;;;;;9.55;100.00;98711.13;5039469;28;20156;-59
2022/05/02 03:07:03;;;;;;;484.93;367.40;;;;;;;9.32;100.00;98712.28;5042916;28;20510;-60
2022/05/02 03:09:30;;;;;;;484.20;364.90;;;;;;;9.24;100.00;98719.22;5038200;28;20037;-59
2022/05/02 03:11:55;;;;;;;481.10;358.77;;;;;;;9.11;100.00;98710.84;5039770;28;20590;-60
2022/05/02 03:14:21;;;;;;;481.47;364.80;;;;;;;8.99;100.00;98709.28;5042240;28;20120;-59
2022/05/02 03:16:46;;;;;;;490.43;376.10;;;;;;;8.93;100.00;98709.34;5041141;28;20120;-60
2022/05/02 03:19:12;;;;;;;488.20;363.23;;;;;;;8.94;100.00;98705.09;5038802;28;20064;-59
2022/05/02 03:21:38;;;;;;;483.87;352.63;;;;;;;8.80;100.00;98700.13;5041153;28;20028;-57
2022/05/02 03:24:03;;;;;;;484.33;353.27;;;;;;;8.87;100.00;98706.84;5042866;28;20146;-59
2022/05/02 03:26:29;;;;;;;487.93;358.77;;;;;;;8.78;100.00;98693.34;5041350;28;20040;-59
2022/05/02 03:28:55;;;;;;;487.63;360.20;;;;;;;8.67;100.00;98698.56;5038780;28;20398;-62
2022/05/02 03:31:20;;;;;;;485.23;348.27;;;;;;;8.69;100.00;98700.25;5041009;28;20032;-61
2022/05/02 03:33:46;;;;;;;484.70;348.27;;;;;;;8.64;100.00;98703.69;5042637;28;20041;-61
2022/05/02 03:36:11;;;;;;;488.93;352.30;;;;;;;8.59;100.00;98703.75;5040731;28;20024;-61
2022/05/02 03:38:37;;;;;;;493.57;351.47;;;;;;;8.52;100.00;98708.94;5038852;28;20029;-62
2022/05/02 03:41:02;;;;;;;489.43;340.23;;;;;;;8.41;100.00;98703.91;5042018;28;20467;-62
2022/05/02 03:43:27;;;;;;;492.27;343.00;;;;;;;8.35;100.00;98695.47;5042410;28;20081;-64
2022/05/02 03:45:53;;;;;;;493.33;342.50;;;;;;;8.32;100.00;98701.44;5039037;28;20029;-64
2022/05/02 03:48:18;;;;;;;492.83;333.80;;;;;;;8.22;100.00;98698.13;5038585;28;20049;-64
2022/05/02 03:50:44;;;;;;;489.33;321.07;;;;;;;8.18;100.00;98711.75;5042408;28;20565;-63
2022/05/02 03:53:09;;;;;;;489.47;328.57;;;;;;;8.20;100.00;98717.69;5042496;28;20033;-62
2022/05/02 03:55:35;;;;;;;494.23;327.67;;;;;;;8.18;100.00;98724.53;5038801;28;20109;-62
2022/05/02 03:58:02;;;;;;;495.07;330.40;;;;;;;8.16;100.00;98726.22;5038055;28;20079;-62
2022/05/02 04:00:27;;;;;;;491.60;319.57;;;;;;;8.14;100.00;98722.00;5042866;28;20032;-61
2022/05/02 04:02:53;;;;;;;491.27;318.60;;;;;;;8.17;100.00;98733.03;5043272;28;20029;-64
2022/05/02 04:05:18;;;;;;;491.73;323.10;;;;;;;8.14;100.00;98727.97;5037559;28;20430;-57
2022/05/02 04:07:44;;;;;;;489.53;318.23;;;;;;;8.22;100.00;98726.19;5037242;28;20496;-60
2022/05/02 04:10:09;;;;;;;488.73;317.13;;;;;;;8.21;100.00;98710.88;5038276;28;20025;-60
2022/05/02 04:12:39;;;;;;;493.50;326.77;;;;;;;8.31;100.00;98717.66;5040230;28;20033;-60
2022/05/02 04:15:06;;;;;;;495.47;323.13;;;;;;;8.31;100.00;98717.66;5035231;28;20499;-60
2022/05/02 04:17:31;;;;;;;487.93;311.50;;;;;;;8.38;100.00;98726.09;5038247;28;20428;-58
2022/05/02 04:19:56;;;;;;;488.53;320.30;;;;;;;8.37;100.00;98725.25;5039415;28;20375;-60
2022/05/02 04:22:22;;;;;;;487.03;325.37;;;;;;;8.38;100.00;98721.84;5041354;28;20409;-60
2022/05/02 04:24:47;;;;;;;491.63;327.47;;;;;;;8.40;100.00;98732.06;5038126;28;20308;-60
2022/05/02 04:27:13;;;;;;;483.57;319.73;;;;;;;8.41;100.00;98726.91;5040965;28;20037;-60
2022/05/02 04:29:38;;;;;;;482.40;324.47;;;;;;;8.52;100.00;98729.38;5040358;28;20281;-59
2022/05/02 04:32:04;;;;;;;484.83;327.30;;;;;;;8.53;100.00;98723.41;5039832;28;20107;-60
2022/05/02 04:34:29;;;;;;;491.40;340.63;;;;;;;8.59;100.00;98733.56;5037729;28;20554;-60
2022/05/02 04:36:55;;;;;;;481.53;331.03;;;;;;;8.64;100.00;98724.16;5023426;28;20493;-60
2022/05/02 04:39:20;;;;;;;490.73;337.83;;;;;;;8.65;100.00;98716.47;5041504;28;20033;-60
2022/05/02 04:41:46;;;;;;;488.53;344.03;;;;;;;8.71;100.00;98721.50;5040255;28;20029;-61
2022/05/02 04:44:11;;;;;;;486.63;339.50;;;;;;;8.79;100.00;98725.69;5037618;28;20459;-60
2022/05/02 04:46:36;;;;;;;488.47;343.00;;;;;;;8.83;100.00;98727.34;5043840;28;20490;-60
2022/05/02 04:49:02;;;;;;;487.93;333.13;;;;;;;8.95;100.00;98728.09;5046059;28;20043;-60
2022/05/02 04:51:28;;;;;;;504.97;345.70;;;;;;;9.05;100.00;98731.38;5041807;28;20040;-61
2022/05/02 04:53:53;;;;;;;501.93;351.50;;;;;;;9.17;100.00;98737.19;5042041;28;20045;-60
2022/05/02 04:56:18;;;;;;;496.73;338.97;;;;;;;9.35;100.00;98750.63;5046107;28;20028;-61
2022/05/02 04:58:44;;;;;;;497.03;337.77;;;;;;;9.50;100.00;98760.69;5045867;28;20387;-60
2022/05/02 05:01:09;;;;;;;501.53;352.07;;;;;;;9.62;100.00;98752.84;5042633;28;20032;-59
2022/05/02 05:03:35;;;;;;;502.10;358.00;;;;;;;9.80;100.00;98751.75;5040714;28;20387;-56
2022/05/02 05:06:01;;;;;;;500.40;354.43;;;;;;;9.93;100.00;98741.28;5045333;28;20167;-61
2022/05/02 05:08:26;;;;;;;500.80;358.03;;;;;;;10.00;100.00;98747.19;5045937;28;20033;-58
2022/05/02 05:11:30;;;;;;;501.97;366.67;;;;;;;10.34;100.00;98742.41;5041655;28;20489;-59
2022/05/02 05:17:04;;;;;;;503.55;371.40;;;;;;;10.55;100.00;98747.19;5044246;28;20118;-60
2022/05/02 05:19:58;;;;;;;508.57;381.60;;;;;;;10.69;100.00;98742.69;5042487;28;20043;-59
2022/05/02 05:22:44;;;;;;;512.47;394.10;;;;;;;10.78;100.00;98742.50;4959919;28;20039;-60
2022/05/02 05:25:38;;;;;;;506.10;392.90;;;;;;;10.85;100.00;98738.09;4963949;28;20043;-60
2022/05/02 05:28:37;;;;;;;512.97;404.23;;;;;;;11.06;100.00;98740.28;4957412;28;20114;-60
2022/05/02 05:31:31;;;;;;;516.20;415.10;;;;;;;11.10;100.00;98741.06;4959457;28;20118;-59
2022/05/02 05:34:08;;;;;;;512.87;413.60;;;;;;;11.23;100.00;98740.78;4963246;28;20046;-60
2022/05/02 05:37:12;;;;;;;514.00;421.37;;;;;;;11.49;100.00;98735.13;4964255;28;20081;-59
2022/05/02 05:40:15;;;;;;;519.10;434.87;;;;;;;11.77;100.00;98728.53;4959209;28;20358;-59
2022/05/02 05:42:55;;;;;;;516.20;430.40;;;;;;;12.03;100.00;98725.38;4962130;28;20031;-60
2022/05/02 05:45:31;;;;;;;523.40;455.57;;;;;;;12.17;100.00;98720.78;4963642;28;20434;-60
2022/05/02 05:48:27;;;;;;;535.20;476.87;;;;;;;12.29;100.00;98725.59;4960672;28;20043;-60
2022/05/02 05:51:22;;;;;;;537.37;479.27;;;;;;;12.58;100.00;98724.03;4960291;28;20038;-60
2022/05/02 05:53:50;;;;;;;547.63;489.00;;;;;;;12.64;100.00;98724.72;4963666;28;20237;-60
2022/05/02 05:56:28;;;;;;;566.37;507.23;;;;;;;12.76;100.00;98726.13;4963074;28;20624;-60
2022/05/02 05:59:43;;;;;;;576.20;517.23;;;;;;;12.81;100.00;98719.16;4980143;28;20044;-60
2022/05/02 06:02:21;;;;;;;575.20;516.10;;;;;;;12.91;100.00;98717.16;5024191;28;20037;-60
2022/05/02 06:04:50;;;;;;;571.77;513.03;;;;;;;13.04;100.00;98721.94;5045199;28;20094;-60
2022/05/02 06:07:21;;;;;;;584.17;525.07;;;;;;;13.09;100.00;98712.34;5041074;28;20450;-60
2022/05/02 06:09:48;;;;;;;586.30;527.37;;;;;;;13.08;100.00;98715.81;5040290;28;20124;-60
2022/05/02 06:12:15;;;;;;;586.63;527.67;;;;;;;13.30;100.00;98708.38;5045175;28;20036;-59
2022/05/02 06:20:20;;;;;;;595.60;536.20;;;;;;;13.62;100.00;98710.00;5043414;28;20091;-61
2022/05/02 06:22:47;;;;;;;606.33;547.10;;;;;;;13.78;100.00;98715.53;5045247;28;20483;-61
2022/05/02 06:25:14;;;;;;;619.80;559.87;;;;;;;13.63;100.00;98715.09;5041841;28;20467;-58
2022/05/02 06:27:41;;;;;;;612.87;552.70;;;;;;;13.74;100.00;98704.47;5040343;28;20075;-59
2022/05/02 06:30:08;;;;;;;609.53;549.83;;;;;;;13.82;100.00;98706.81;5043340;28;20025;-59
2022/05/02 06:32:37;;;;;;;618.63;558.87;;;;;;;14.10;100.00;98705.06;5043381;28;20029;-60
2022/05/02 06:35:06;;;;;;;638.87;578.43;;;;;;;14.25;100.00;98708.88;5041435;28;20198;-59
2022/05/02 06:37:34;;;;;;;648.97;588.13;;;;;;;14.11;100.00;98704.16;5040043;28;20505;-60
2022/05/02 06:40:25;;;;;;;628.43;568.53;;;;;;;14.20;100.00;98703.88;5043939;28;20041;-60
2022/05/02 06:43:18;;;;;;;642.08;581.33;;;;;;;14.46;100.00;98705.63;5043714;28;20530;-60
2022/05/02 06:46:00;;;;;;;649.70;589.07;;;;;;;14.48;100.00;98715.00;5039946;28;20044;-59
2022/05/02 06:48:41;;;;;;;653.53;593.07;;;;;;;14.73;100.00;98712.44;5046781;28;20048;-59
2022/05/02 06:51:15;;;;;;;662.72;601.65;;;;;;;14.85;100.00;98713.75;5044777;28;20536;-59
2022/05/02 06:54:02;;;;;;;672.85;611.45;;;;;;;15.07;100.00;98710.34;5040384;28;20030;-59
2022/05/02 06:56:44;;;;;;;670.42;609.17;;;;;;;15.06;100.00;98713.00;5039411;28;20041;-60
2022/05/02 06:59:34;;;;;;;681.72;620.55;;;;;;;14.96;100.00;98712.47;5043783;28;20044;-61
2022/05/02 07:02:29;;;;;;;686.85;625.38;;;;;;;15.21;100.00;98709.88;5042101;28;20060;-61
2022/05/02 07:04:56;;;;;;;700.47;638.80;;;;;;;15.34;100.00;98707.66;4996603;28;20037;-60
2022/05/02 07:07:42;;;;;;;700.80;639.05;;;;;;;15.38;100.00;98702.34;5042435;28;20033;-60
2022/05/02 07:10:20;;;;;;;703.08;641.38;;;;;;;15.21;100.00;98702.13;5043979;28;20028;-60
2022/05/02 07:13:11;;;;;;;714.92;652.60;;;;;;;15.39;100.00;98704.03;5040020;28;20530;-61
2022/05/02 07:15:48;;;;;;;708.00;646.22;;;;;;;15.59;100.00;98705.03;5039273;28;20249;-61
2022/05/02 07:18:22;;;;;;;726.13;663.95;;;;;;;15.81;100.00;98703.31;5043880;28;20025;-62
2022/05/02 07:21:02;;;;;;;735.33;672.65;;;;;;;15.77;100.00;98701.75;5042696;28;20080;-62
2022/05/02 07:23:49;;;;;;;747.65;684.75;;;;;;;15.91;100.00;98713.22;5038333;28;20078;-61
2022/05/02 07:26:18;;;;;;;744.63;681.78;;;;;;;16.15;100.00;98708.00;5042085;28;20186;-61
2022/05/02 07:28:48;;;;;;;748.92;686.08;;;;;;;16.20;100.00;98709.50;5042773;28;20427;-61
2022/05/02 07:31:23;;;;;;;760.83;697.58;;;;;;;16.41;100.00;98712.97;5039443;28;20033;-61
2022/05/02 07:33:53;;;;;;;767.20;703.75;;;;;;;16.50;100.00;98710.00;5039155;28;20463;-62
2022/05/02 07:36:22;;;;;;;763.08;699.75;;;;;;;16.51;100.00;98703.91;5042960;28;20449;-61
2022/05/02 07:38:53;;;;;;;777.40;713.83;;;;;;;16.69;100.00;98704.91;5043666;28;20033;-61
2022/05/02 07:41:23;;;;;;;783.17;719.05;;;;;;;16.74;98.50;98709.00;5038858;28;20037;-59
2022/05/02 07:44:01;;;;;;;769.92;706.60;;;;;;;16.82;100.00;98712.09;5040128;28;20428;-61
2022/05/02 07:46:37;;;;;;;782.85;719.08;;;;;;;16.83;96.83;98703.44;5043326;28;20091;-61
2022/05/02 07:49:05;;;;;;;791.88;727.67;;;;;;;17.05;97.07;98710.28;5041211;28;20061;-61
2022/05/02 07:51:32;;;;;;;790.95;726.72;;;;;;;16.70;94.13;98704.00;5038978;28;20583;-62
2022/05/02 07:53:59;;;;;;;793.33;729.55;;;;;;;16.65;95.78;98701.63;5041319;28;20028;-61
2022/05/02 07:56:27;;;;;;;779.72;715.95;;;;;;;16.71;99.52;98696.19;5043293;28;20036;-61
2022/05/02 07:58:54;;;;;;;799.60;735.17;;;;;;;17.00;100.00;98707.88;5040741;28;20108;-61
2022/05/02 08:01:23;;;;;;;803.13;738.78;;;;;;;17.17;98.92;98707.13;5038725;28;20033;-60
2022/05/02 08:03:50;;;;;;;801.92;737.55;;;;;;;17.22;98.84;98700.00;5041905;28;20033;-61
2022/05/02 08:06:53;;;;;;;814.53;750.00;;;;;;;17.13;93.45;98706.44;5043091;28;20041;-61
2022/05/02 08:09:40;;;;;;;815.53;750.92;;;;;;;17.18;94.99;98704.50;5038295;28;20041;-62
2022/05/02 08:12:30;;;;;;;809.03;744.90;;;;;;;17.18;93.43;98708.81;5039711;28;20033;-61
2022/05/02 08:14:59;;;;;;;809.22;745.13;;;;;;;17.21;92.79;98708.69;5042257;28;20057;-60
2022/05/02 08:17:45;;;;;;;818.33;753.75;;;;;;;17.26;91.28;98704.16;5041050;28;20109;-61
2022/05/02 08:20:32;;;;;;;815.45;750.92;;;;;;;17.42;89.96;98701.69;5039210;28;20501;-61
2022/05/02 08:29:27;;;;;;;811.17;746.85;;;;;;;17.54;87.07;98704.56;5041777;28;20044;-61
2022/05/02 08:32:31;;;;;;;828.92;764.17;;;;;;;18.03;87.64;98695.38;5045232;28;20033;-61
2022/05/02 08:35:13;;;;;;;829.28;764.80;;;;;;;18.00;85.15;98685.13;4945648;29;20046;-60
2022/05/02 08:37:47;;;;;;;828.10;763.45;;;;;;;17.95;85.70;98689.69;4941259;29;20043;-61
2022/05/02 08:40:25;;;;;;;817.83;753.60;;;;;;;17.90;86.61;98686.50;4942095;29;20097;-61
2022/05/02 08:43:08;;;;;;;826.63;761.83;;;;;;;17.93;86.64;98688.94;4945154;29;20166;-60
2022/05/02 08:45:46;;;;;;;838.20;773.63;;;;;;;18.02;86.71;98683.31;4943580;29;20596;-61
2022/05/02 08:48:33;;;;;;;844.65;779.88;;;;;;;18.26;86.31;98687.28;4941355;29;20085;-62
2022/05/02 08:51:16;;;;;;;856.03;790.75;;;;;;;18.22;83.78;98684.91;4944090;29;20202;-61
2022/05/02 08:54:03;;;;;;;836.65;772.38;;;;;;;18.10;84.81;98696.75;4945225;29;20560;-62
2022/05/02 08:56:51;;;;;;;847.20;782.63;;;;;;;18.55;84.32;98695.41;4940702;29;20035;-61
2022/05/02 08:59:31;;;;;;;852.83;788.47;;;;;;;18.74;84.55;98688.38;4941601;29;20043;-59
2022/05/02 09:02:41;;;;;;;861.40;796.70;;;;;;;18.73;82.13;98686.72;4944504;29;20043;-61
2022/05/02 09:05:26;;;;;;;865.10;800.55;;;;;;;19.03;80.45;98684.28;4937183;29;20054;-61
2022/05/02 09:08:25;;;;;;;872.70;807.42;;;;;;;19.02;81.40;98687.78;4945834;28;20321;-61
2022/05/02 09:11:34;;;;;;;870.58;806.42;;;;;;;18.82;79.51;98686.25;5045345;28;20127;-61
2022/05/02 09:14:37;;;;;;;873.13;808.72;;;;;;;18.74;77.96;98679.75;5033122;28;20049;-61
2022/05/02 09:17:17;;;;;;;883.33;818.78;;;;;;;19.10;78.52;98689.06;5000858;28;20083;-60
2022/05/02 09:19:46;;;;;;;890.67;826.13;;;;;;;19.19;73.22;98685.16;5005233;28;20046;-60
2022/05/02 09:22:37;;;;;;;897.78;833.15;;;;;;;19.46;72.21;98688.91;5004530;28;20037;-61
2022/05/02 09:25:07;;;;;;;900.97;836.08;;;;;;;19.43;67.69;98686.50;4939746;28;20086;-60
2022/05/02 09:28:01;;;;;;;888.75;824.78;;;;;;;19.79;68.71;98686.22;4941029;28;20042;-61
2022/05/02 09:31:00;;;;;;;901.50;837.65;;;;;;;19.87;62.43;98689.25;4944185;28;20049;-61
2022/05/02 09:33:35;;;;;;;911.33;846.15;;;;;;;19.87;64.01;98685.81;4940190;28;20098;-59
2022/05/02 09:36:29;;;;;;;906.90;841.72;;;;;;;20.14;65.15;98675.59;4939212;28;20047;-60
2022/05/02 09:39:00;;;;;;;913.28;848.40;;;;;;;20.17;61.62;98673.66;4942382;28;20043;-59
2022/05/02 09:41:36;;;;;;;929.85;864.53;;;;;;;20.23;62.91;98672.50;4942498;28;20054;-61
2022/05/02 09:50:56;;;;;;;931.65;866.67;;;;;;;20.49;61.80;98667.50;4943712;28;20075;-60
2022/05/02 09:53:54;;;;;;;926.42;861.95;;;;;;;20.31;67.30;98667.72;4939130;28;20035;-61
2022/05/02 09:56:40;;;;;;;930.03;865.50;;;;;;;20.31;61.71;98671.16;4941752;28;20126;-61
2022/05/02 09:59:09;;;;;;;923.30;859.47;;;;;;;20.21;58.72;98672.56;4943696;28;20035;-61
2022/05/02 10:01:45;;;;;;;940.83;876.35;;;;;;;20.29;60.17;98669.50;4962001;28;20045;-61
2022/05/02 10:04:32;;;;;;;929.40;865.55;;;;;;;20.33;62.99;98658.03;5001048;28;20786;-61
2022/05/02 10:07:05;;;;;;;921.60;858.47;;;;;;;20.61;58.28;98662.47;5005872;28;20173;-60
2022/05/02 10:09:52;;;;;;;934.65;870.90;;;;;;;20.51;53.44;98662.16;5004017;28;20108;-60
2022/05/02 10:12:31;;;;;;;950.15;886.28;;;;;;;20.59;50.90;98656.50;5000176;28;20038;-60
2022/05/02 10:15:15;;;;;;;936.25;872.70;;;;;;;20.66;53.24;98658.69;4968862;28;1274468;-62
2022/05/02 10:18:18;;;;;;;939.95;876.55;;;;;;;20.80;49.42;98650.84;5043646;28;20045;-61
2022/05/02 10:21:23;;;;;;;940.65;877.55;;;;;;;20.63;49.78;98651.03;5040744;28;20029;-61
2022/05/02 10:24:16;;;;;;;943.42;880.90;;;;;;;20.39;53.54;98639.44;5015878;28;20052;-62
2022/05/02 10:26:56;;;;;;;941.67;878.72;;;;;;;20.57;57.50;98640.13;5045199;28;20450;-62
2022/05/02 10:29:38;;;;;;;951.47;888.13;;;;;;;20.56;53.44;98641.91;5041311;28;20033;-60
2022/05/02 10:32:08;;;;;;;938.60;875.58;;;;;;;20.59;52.78;98643.47;5041029;28;20036;-60
2022/05/02 10:34:37;;;;;;;943.95;881.65;;;;;;;20.55;53.27;98636.78;5044231;28;20041;-61
2022/05/02 10:37:06;;;;;;;951.78;889.80;;;;;;;20.45;54.77;98639.09;5044506;28;20044;-61
2022/05/02 10:39:50;;;;;;;967.10;904.60;;;;;;;20.78;55.81;98633.66;5039005;28;20026;-62
2022/05/02 10:42:19;;;;;;;955.97;893.90;;;;;;;21.11;57.40;98633.34;5041971;28;20041;-62
2022/05/02 10:45:04;;;;;;;954.65;892.50;;;;;;;20.96;57.38;98622.91;5043740;28;20033;-61
2022/05/02 10:47:52;;;;;;;959.97;897.85;;;;;;;21.29;54.51;98627.88;5041917;28;20396;-59
2022/05/02 10:50:31;;;;;;;957.33;895.40;;;;;;;21.53;51.78;98617.66;5039185;28;20086;-61
2022/05/02 10:53:34;;;;;;;979.40;917.20;;;;;;;21.76;52.18;98618.81;5043819;28;20094;-62
2022/05/02 10:56:21;;;;;;;972.38;910.05;;;;;;;21.64;52.69;98612.59;5044156;28;20044;-61
2022/05/02 10:58:48;;;;;;;977.03;914.92;;;;;;;21.65;51.91;98603.81;5039024;28;20037;-61
2022/05/02 11:01:37;;;;;;;977.78;915.83;;;;;;;21.62;49.82;98608.41;5041606;28;20028;-61
2022/05/02 11:04:38;;;;;;;972.97;908.55;;;;;;;21.75;48.22;98609.28;4961942;28;20158;-59
2022/05/02 11:07:08;;;;;;;987.92;925.35;;;;;;;21.47;52.87;98610.25;4864400;29;20045;-61
2022/05/02 11:09:49;;;;;;;969.40;908.25;;;;;;;21.76;53.35;98604.00;4863094;29;20214;-61
2022/05/02 11:12:19;;;;;;;971.25;910.38;;;;;;;21.71;53.61;98600.84;4868005;29;20064;-62
2022/05/02 11:14:54;;;;;;;976.10;914.58;;;;;;;21.49;53.25;98597.91;4867185;29;20061;-62
2022/05/02 11:17:28;;;;;;;976.78;916.17;;;;;;;21.58;54.42;98591.28;4862897;29;20057;-61
2022/05/02 11:22:56;;;;;;;963.38;904.63;;;;;;;21.57;50.02;98593.03;4868202;29;20063;-60
2022/05/02 11:25:24;;;;;;;962.40;903.50;;;;;;;21.75;52.64;98589.25;4864858;29;20036;-61
2022/05/02 11:28:14;;;;;;;977.45;918.22;;;;;;;21.97;50.33;98593.09;4863071;29;20197;-61
2022/05/02 11:30:47;;;;;;;966.63;908.60;;;;;;;21.73;47.58;98583.28;4867267;29;20128;-60
2022/05/02 11:33:23;;;;;;;982.40;923.17;;;;;;;21.90;46.25;98586.59;4866949;29;20592;-60
2022/05/02 11:35:49;;;;;;;973.83;914.75;;;;;;;21.94;45.36;98577.66;4844198;29;20060;-62
2022/05/02 11:38:21;;;;;;;966.75;909.03;;;;;;;22.00;46.61;98574.63;4864340;29;20101;-61
2022/05/02 11:40:50;;;;;;;967.47;909.60;;;;;;;22.17;46.56;98569.97;4894503;29;20051;-58
2022/05/02 11:43:21;;;;;;;992.00;932.67;;;;;;;22.27;44.89;98580.63;4973074;28;20183;-61
2022/05/02 11:46:13;;;;;;;968.05;910.55;;;;;;;22.24;47.33;98575.59;5018599;28;20476;-61
2022/05/02 11:49:34;;;;;;;968.20;910.83;;;;;;;22.21;45.00;98571.41;5020889;28;20029;-61
2022/05/02 11:52:01;;;;;;;968.53;911.25;;;;;;;22.61;44.69;98559.09;5001212;28;20137;-62
2022/05/02 11:54:27;;;;;;;960.15;903.05;;;;;;;22.33;44.66;98574.97;5018470;28;20056;-62
2022/05/02 11:57:22;;;;;;;941.67;886.00;;;;;;;22.03;44.30;98566.56;5020183;28;20547;-62
2022/05/02 11:59:54;;;;;;;;;;;;;;;22.06;45.07;98566.41;5024445;28;20115;-62